createdAt,value
2023-03-21T00:00:03.504Z,26.19
2023-03-21T00:00:13.522Z,26.19
2023-03-21T00:00:23.543Z,26.20
2023-03-21T00:00:33.538Z,26.20
2023-03-21T00:00:43.954Z,26.21
2023-03-21T00:00:53.933Z,26.21
2023-03-21T00:01:04.065Z,26.22
2023-03-21T00:01:14.326Z,26.22
2023-03-21T00:01:24.466Z,26.22
2023-03-21T00:01:34.474Z,26.22
2023-03-21T00:01:44.723Z,26.22
2023-03-21T00:01:54.771Z,26.23
2023-03-21T00:02:04.846Z,26.24
2023-03-21T00:02:15.132Z,26.23
2023-03-21T00:02:25.225Z,26.23
2023-03-21T00:02:35.356Z,26.23
2023-03-21T00:02:45.623Z,26.23
2023-03-21T00:02:55.620Z,26.23
2023-03-21T00:03:05.627Z,26.24
2023-03-21T00:03:15.701Z,26.25
2023-03-21T00:03:25.780Z,26.26
2023-03-21T00:03:35.830Z,26.25
2023-03-21T00:03:45.842Z,26.26
2023-03-21T00:03:55.938Z,26.26
2023-03-21T00:04:05.958Z,26.26
2023-03-21T00:04:15.995Z,26.26
2023-03-21T00:04:26.359Z,26.25
2023-03-21T00:04:50.393Z,26.26
2023-03-21T00:04:52.247Z,26.21
2023-03-21T00:04:58.500Z,26.18
2023-03-21T00:05:15.551Z,26.14
2023-03-21T00:05:16.429Z,26.12
2023-03-21T00:05:26.277Z,26.16
2023-03-21T00:05:36.811Z,26.19
2023-03-21T00:05:46.468Z,26.20
2023-03-21T00:05:56.520Z,26.21
2023-03-21T00:06:06.540Z,26.22
2023-03-21T00:06:16.655Z,26.23
2023-03-21T00:06:26.663Z,26.23
2023-03-21T00:06:36.784Z,26.23
2023-03-21T00:06:46.791Z,26.24
2023-03-21T00:06:56.913Z,26.24
2023-03-21T00:07:07.164Z,26.24
2023-03-21T00:07:17.177Z,26.25
2023-03-21T00:07:27.187Z,26.25
2023-03-21T00:07:37.196Z,26.25
2023-03-21T00:07:47.202Z,26.27
2023-03-21T00:07:57.220Z,26.27
2023-03-21T00:08:07.227Z,26.28
2023-03-21T00:08:17.234Z,26.28
2023-03-21T00:08:27.244Z,26.28
2023-03-21T00:08:37.253Z,26.28
2023-03-21T00:08:47.270Z,26.28
2023-03-21T00:08:57.274Z,26.29
2023-03-21T00:09:07.283Z,26.29
2023-03-21T00:09:17.292Z,26.30
2023-03-21T00:09:27.349Z,26.29
2023-03-21T00:09:37.366Z,26.28
2023-03-21T00:09:47.365Z,26.29
2023-03-21T00:10:08.454Z,26.29
2023-03-21T00:10:15.455Z,26.24
2023-03-21T00:10:26.740Z,26.21
2023-03-21T00:10:39.835Z,26.18
2023-03-21T00:10:41.649Z,26.15
2023-03-21T00:10:47.791Z,26.13
2023-03-21T00:10:57.797Z,26.18
2023-03-21T00:11:07.806Z,26.20
2023-03-21T00:11:17.921Z,26.21
2023-03-21T00:11:27.920Z,26.22
2023-03-21T00:11:38.057Z,26.22
2023-03-21T00:11:48.045Z,26.23
2023-03-21T00:11:58.158Z,26.24
2023-03-21T00:12:08.296Z,26.24
2023-03-21T00:12:18.374Z,26.24
2023-03-21T00:12:28.383Z,26.25
2023-03-21T00:12:38.396Z,26.26
2023-03-21T00:12:48.401Z,26.27
2023-03-21T00:12:58.420Z,26.27
2023-03-21T00:13:08.427Z,26.28
2023-03-21T00:13:18.436Z,26.28
2023-03-21T00:13:28.560Z,26.29
2023-03-21T00:13:38.609Z,26.28
2023-03-21T00:13:48.563Z,26.28
2023-03-21T00:13:58.685Z,26.28
2023-03-21T00:14:08.724Z,26.28
2023-03-21T00:14:18.857Z,26.27
2023-03-21T00:14:28.844Z,26.28
2023-03-21T00:14:38.912Z,26.28
2023-03-21T00:14:48.976Z,26.29
2023-03-21T00:14:59.365Z,26.28
2023-03-21T00:15:09.404Z,26.28
2023-03-21T00:15:22.568Z,26.29
2023-03-21T00:15:39.943Z,26.21
2023-03-21T00:15:44.361Z,26.18
2023-03-21T00:16:01.958Z,26.16
2023-03-21T00:16:06.735Z,26.14
2023-03-21T00:16:14.087Z,26.12
2023-03-21T00:16:25.056Z,26.10
2023-03-21T00:16:31.270Z,26.09
2023-03-21T00:16:39.574Z,26.11
2023-03-21T00:16:49.563Z,26.15
2023-03-21T00:16:59.652Z,26.18
2023-03-21T00:17:09.678Z,26.19
2023-03-21T00:17:19.803Z,26.21
2023-03-21T00:17:29.824Z,26.22
2023-03-21T00:17:40.094Z,26.23
2023-03-21T00:17:50.102Z,26.23
2023-03-21T00:18:00.108Z,26.25
2023-03-21T00:18:10.138Z,26.25
2023-03-21T00:18:20.138Z,26.26
2023-03-21T00:18:30.147Z,26.27
2023-03-21T00:18:40.265Z,26.27
2023-03-21T00:18:50.266Z,26.27
2023-03-21T00:19:00.267Z,26.27
2023-03-21T00:19:10.283Z,26.29
2023-03-21T00:19:20.565Z,26.28
2023-03-21T00:19:30.557Z,26.29
2023-03-21T00:19:40.539Z,26.29
2023-03-21T00:19:51.653Z,26.29
2023-03-21T00:20:00.639Z,26.28
2023-03-21T00:20:10.639Z,26.29
2023-03-21T00:20:20.765Z,26.28
2023-03-21T00:20:30.761Z,26.28
2023-03-21T00:20:40.883Z,26.29
2023-03-21T00:20:50.901Z,26.28
2023-03-21T00:21:25.692Z,26.28
2023-03-21T00:21:46.512Z,26.18
2023-03-21T00:21:55.631Z,26.12
2023-03-21T00:22:05.969Z,26.10
2023-03-21T00:22:07.455Z,26.09
2023-03-21T00:22:10.961Z,26.07
2023-03-21T00:22:21.003Z,26.11
2023-03-21T00:22:31.009Z,26.16
2023-03-21T00:22:41.011Z,26.16
2023-03-21T00:22:51.002Z,26.18
2023-03-21T00:23:01.126Z,26.21
2023-03-21T00:23:11.125Z,26.20
2023-03-21T00:23:21.144Z,26.22
2023-03-21T00:23:31.138Z,26.23
2023-03-21T00:23:41.262Z,26.24
2023-03-21T00:23:51.267Z,26.24
2023-03-21T00:24:01.321Z,26.25
2023-03-21T00:24:11.365Z,26.26
2023-03-21T00:24:21.486Z,26.26
2023-03-21T00:24:31.512Z,26.27
2023-03-21T00:24:41.686Z,26.27
2023-03-21T00:24:51.685Z,26.27
2023-03-21T00:25:01.687Z,26.27
2023-03-21T00:25:11.694Z,26.29
2023-03-21T00:25:21.825Z,26.29
2023-03-21T00:25:31.821Z,26.29
2023-03-21T00:25:41.836Z,26.29
2023-03-21T00:25:51.843Z,26.29
2023-03-21T00:26:01.853Z,26.30
2023-03-21T00:26:11.859Z,26.29
2023-03-21T00:26:22.123Z,26.28
2023-03-21T00:26:32.146Z,26.28
2023-03-21T00:26:42.276Z,26.28
2023-03-21T00:26:52.687Z,26.28
2023-03-21T00:27:21.983Z,26.28
2023-03-21T00:27:42.981Z,26.18
2023-03-21T00:27:50.013Z,26.22
2023-03-21T00:28:01.150Z,26.12
2023-03-21T00:28:08.254Z,26.09
2023-03-21T00:28:12.941Z,26.07
2023-03-21T00:28:23.059Z,26.11
2023-03-21T00:28:33.071Z,26.14
2023-03-21T00:28:43.068Z,26.16
2023-03-21T00:28:53.084Z,26.16
2023-03-21T00:29:03.209Z,26.18
2023-03-21T00:29:13.231Z,26.19
2023-03-21T00:29:23.206Z,26.19
2023-03-21T00:29:33.464Z,26.20
2023-03-21T00:29:43.601Z,26.20
2023-03-21T00:29:53.617Z,26.21
2023-03-21T00:30:03.864Z,26.21
2023-03-21T00:30:13.871Z,26.20
2023-03-21T00:30:23.996Z,26.21
2023-03-21T00:30:34.260Z,26.21
2023-03-21T00:30:44.355Z,26.21
2023-03-21T00:30:54.349Z,26.21
2023-03-21T00:31:04.745Z,26.21
2023-03-21T00:31:14.735Z,26.22
2023-03-21T00:31:24.736Z,26.22
2023-03-21T00:31:34.749Z,26.22
2023-03-21T00:31:44.876Z,26.21
2023-03-21T00:31:54.871Z,26.22
2023-03-21T00:32:04.901Z,26.21
2023-03-21T00:32:14.914Z,26.22
2023-03-21T00:32:24.937Z,26.21
2023-03-21T00:32:39.806Z,26.22
2023-03-21T00:32:55.412Z,26.16
2023-03-21T00:32:56.765Z,26.11
2023-03-21T00:33:19.686Z,26.14
2023-03-21T00:33:22.382Z,26.09
2023-03-21T00:33:24.972Z,26.08
2023-03-21T00:33:34.973Z,26.11
2023-03-21T00:33:45.003Z,26.14
2023-03-21T00:33:54.996Z,26.14
2023-03-21T00:34:04.992Z,26.15
2023-03-21T00:34:15.122Z,26.16
2023-03-21T00:34:36.488Z,26.17
2023-03-21T00:34:43.398Z,26.10
2023-03-21T00:34:59.661Z,26.07
2023-03-21T00:35:13.729Z,26.04
2023-03-21T00:35:40.728Z,26.02
2023-03-21T00:35:51.749Z,26.01
2023-03-21T00:35:57.501Z,25.99
2023-03-21T00:35:57.930Z,25.98
2023-03-21T00:35:58.728Z,25.98
2023-03-21T00:36:05.003Z,25.95
2023-03-21T00:36:06.008Z,25.94
2023-03-21T00:36:15.425Z,25.98
2023-03-21T00:36:25.540Z,26.00
2023-03-21T00:36:35.578Z,26.02
2023-03-21T00:36:45.625Z,26.04
2023-03-21T00:36:55.819Z,26.05
2023-03-21T00:37:05.843Z,26.06
2023-03-21T00:37:15.851Z,26.06
2023-03-21T00:37:25.865Z,26.08
2023-03-21T00:37:35.868Z,26.09
2023-03-21T00:37:45.985Z,26.09
2023-03-21T00:37:55.997Z,26.10
2023-03-21T00:38:06.010Z,26.10
2023-03-21T00:38:16.007Z,26.10
2023-03-21T00:38:26.027Z,26.11
2023-03-21T00:38:36.292Z,26.11
2023-03-21T00:38:46.277Z,26.12
2023-03-21T00:38:56.280Z,26.13
2023-03-21T00:39:06.340Z,26.12
2023-03-21T00:39:16.352Z,26.13
2023-03-21T00:39:26.351Z,26.13
2023-03-21T00:39:36.447Z,26.14
2023-03-21T00:39:46.420Z,26.12
2023-03-21T00:39:56.490Z,26.13
2023-03-21T00:40:08.592Z,26.13
2023-03-21T00:40:26.605Z,26.10
2023-03-21T00:40:33.052Z,26.05
2023-03-21T00:40:40.848Z,26.02
2023-03-21T00:40:49.204Z,25.99
2023-03-21T00:40:58.210Z,26.01
2023-03-21T00:41:18.906Z,26.01
2023-03-21T00:41:26.145Z,25.98
2023-03-21T00:41:41.524Z,25.94
2023-03-21T00:41:42.933Z,25.92
2023-03-21T00:41:46.992Z,25.90
2023-03-21T00:41:57.054Z,25.95
2023-03-21T00:42:07.182Z,25.97
2023-03-21T00:42:17.191Z,25.99
2023-03-21T00:42:27.197Z,26.00
2023-03-21T00:42:37.199Z,26.01
2023-03-21T00:42:47.210Z,26.02
2023-03-21T00:42:57.203Z,26.03
2023-03-21T00:43:07.468Z,26.02
2023-03-21T00:43:17.483Z,26.02
2023-03-21T00:43:27.598Z,26.04
2023-03-21T00:43:37.848Z,26.04
2023-03-21T00:43:47.974Z,26.04
2023-03-21T00:43:57.975Z,26.05
2023-03-21T00:44:08.223Z,26.05
2023-03-21T00:44:18.227Z,26.05
2023-03-21T00:44:28.232Z,26.06
2023-03-21T00:44:38.222Z,26.06
2023-03-21T00:44:48.236Z,26.05
2023-03-21T00:44:58.233Z,26.06
2023-03-21T00:45:08.248Z,26.06
2023-03-21T00:45:18.249Z,26.06
2023-03-21T00:45:28.383Z,26.06
2023-03-21T00:45:38.854Z,26.07
2023-03-21T00:45:48.706Z,26.06
2023-03-21T00:45:58.710Z,26.06
2023-03-21T00:46:08.789Z,26.06
2023-03-21T00:46:19.685Z,26.06
2023-03-21T00:46:39.772Z,26.04
2023-03-21T00:46:51.709Z,25.99
2023-03-21T00:47:00.841Z,25.96
2023-03-21T00:47:07.189Z,25.92
2023-03-21T00:47:08.992Z,25.89
2023-03-21T00:47:19.046Z,25.94
2023-03-21T00:47:29.064Z,25.95
2023-03-21T00:47:39.126Z,25.96
2023-03-21T00:47:49.285Z,25.97
2023-03-21T00:47:59.414Z,25.97
2023-03-21T00:48:09.314Z,25.98
2023-03-21T00:48:19.328Z,25.99
2023-03-21T00:48:29.391Z,25.98
2023-03-21T00:48:39.382Z,25.99
2023-03-21T00:48:49.413Z,25.99
2023-03-21T00:48:59.424Z,25.99
2023-03-21T00:49:09.427Z,26.00
2023-03-21T00:49:19.464Z,26.00
2023-03-21T00:49:29.524Z,26.01
2023-03-21T00:49:39.511Z,26.01
2023-03-21T00:49:49.513Z,26.01
2023-03-21T00:49:59.642Z,26.01
2023-03-21T00:50:09.646Z,26.01
2023-03-21T00:50:19.647Z,26.01
2023-03-21T00:50:29.643Z,26.01
2023-03-21T00:50:39.769Z,26.01
2023-03-21T00:50:49.914Z,26.01
2023-03-21T00:50:59.912Z,26.02
2023-03-21T00:51:09.918Z,26.01
2023-03-21T00:51:20.293Z,26.01
2023-03-21T00:51:30.296Z,26.01
2023-03-21T00:51:40.301Z,26.01
2023-03-21T00:51:50.353Z,26.02
2023-03-21T00:52:14.736Z,26.01
2023-03-21T00:52:20.322Z,25.95
2023-03-21T00:52:34.188Z,25.91
2023-03-21T00:52:40.299Z,25.88
2023-03-21T00:52:41.386Z,25.86
2023-03-21T00:52:50.372Z,25.89
2023-03-21T00:53:00.385Z,25.91
2023-03-21T00:53:10.409Z,25.92
2023-03-21T00:53:20.402Z,25.93
2023-03-21T00:53:30.657Z,25.93
2023-03-21T00:53:40.775Z,25.93
2023-03-21T00:53:50.775Z,25.93
2023-03-21T00:54:01.044Z,25.94
2023-03-21T00:54:11.052Z,25.94
2023-03-21T00:54:21.048Z,25.94
2023-03-21T00:54:31.045Z,25.94
2023-03-21T00:54:41.054Z,25.95
2023-03-21T00:54:51.057Z,25.95
2023-03-21T00:55:01.070Z,25.95
2023-03-21T00:55:11.071Z,25.96
2023-03-21T00:55:21.112Z,25.96
2023-03-21T00:55:31.105Z,25.97
2023-03-21T00:55:41.107Z,25.97
2023-03-21T00:55:51.116Z,25.96
2023-03-21T00:56:01.115Z,25.96
2023-03-21T00:56:11.147Z,25.96
2023-03-21T00:56:21.141Z,25.97
2023-03-21T00:56:31.155Z,25.97
2023-03-21T00:56:41.168Z,25.96
2023-03-21T00:56:51.195Z,25.97
2023-03-21T00:57:01.182Z,25.96
2023-03-21T00:57:11.195Z,25.96
2023-03-21T00:57:29.285Z,25.95
2023-03-21T00:57:38.660Z,25.90
2023-03-21T00:57:43.586Z,25.86
2023-03-21T00:58:01.116Z,25.88
2023-03-21T00:58:02.648Z,25.84
2023-03-21T00:58:11.649Z,25.86
2023-03-21T00:58:21.636Z,25.88
2023-03-21T00:58:31.634Z,25.88
2023-03-21T00:58:41.633Z,25.89
2023-03-21T00:58:51.888Z,25.89
2023-03-21T00:59:01.889Z,25.89
2023-03-21T00:59:11.906Z,25.89
2023-03-21T00:59:21.897Z,25.89
2023-03-21T00:59:31.894Z,25.89
2023-03-21T00:59:42.025Z,25.89
2023-03-21T00:59:52.054Z,25.90
2023-03-21T01:00:02.074Z,25.89
2023-03-21T01:00:12.109Z,25.90
2023-03-21T01:00:22.227Z,25.90
2023-03-21T01:00:32.388Z,25.91
2023-03-21T01:00:42.409Z,25.91
2023-03-21T01:00:52.453Z,25.91
2023-03-21T01:01:02.564Z,25.90
2023-03-21T01:01:12.634Z,25.90
2023-03-21T01:01:22.544Z,25.90
2023-03-21T01:01:32.602Z,25.90
2023-03-21T01:01:42.773Z,25.90
2023-03-21T01:01:52.829Z,25.91
2023-03-21T01:02:02.945Z,25.90
2023-03-21T01:02:13.266Z,25.90
2023-03-21T01:02:23.488Z,25.89
2023-03-21T01:02:33.370Z,25.89
2023-03-21T01:02:45.202Z,25.89
2023-03-21T01:03:00.191Z,25.88
2023-03-21T01:03:14.075Z,25.84
2023-03-21T01:03:23.749Z,25.79
2023-03-21T01:03:25.620Z,25.77
2023-03-21T01:03:33.913Z,25.79
2023-03-21T01:03:43.922Z,25.81
2023-03-21T01:03:53.932Z,25.82
2023-03-21T01:04:03.937Z,25.83
2023-03-21T01:04:13.958Z,25.84
2023-03-21T01:04:23.958Z,25.84
2023-03-21T01:04:34.013Z,25.84
2023-03-21T01:04:43.999Z,25.84
2023-03-21T01:04:54.000Z,25.84
2023-03-21T01:05:04.007Z,25.85
2023-03-21T01:05:14.012Z,25.85
2023-03-21T01:05:24.016Z,25.84
2023-03-21T01:05:34.171Z,25.84
2023-03-21T01:05:44.092Z,25.84
2023-03-21T01:05:54.099Z,25.83
2023-03-21T01:06:04.092Z,25.84
2023-03-21T01:06:14.102Z,25.83
2023-03-21T01:06:24.226Z,25.84
2023-03-21T01:06:34.231Z,25.84
2023-03-21T01:06:44.233Z,25.83
2023-03-21T01:06:54.248Z,25.84
2023-03-21T01:07:04.248Z,25.83
2023-03-21T01:07:14.500Z,25.83
2023-03-21T01:07:24.509Z,25.83
2023-03-21T01:07:34.516Z,25.84
2023-03-21T01:07:44.530Z,25.84
2023-03-21T01:07:54.534Z,25.83
2023-03-21T01:08:20.663Z,25.83
2023-03-21T01:08:25.419Z,25.77
2023-03-21T01:08:31.042Z,25.73
2023-03-21T01:08:48.431Z,25.70
2023-03-21T01:08:52.318Z,25.68
2023-03-21T01:08:54.691Z,25.66
2023-03-21T01:09:04.735Z,25.70
2023-03-21T01:09:14.760Z,25.71
2023-03-21T01:09:24.781Z,25.73
2023-03-21T01:09:34.787Z,25.73
2023-03-21T01:09:44.908Z,25.74
2023-03-21T01:09:54.906Z,25.75
2023-03-21T01:10:04.917Z,25.75
2023-03-21T01:10:14.920Z,25.76
2023-03-21T01:10:24.947Z,25.76
2023-03-21T01:10:34.943Z,25.77
2023-03-21T01:10:45.062Z,25.77
2023-03-21T01:10:55.069Z,25.77
2023-03-21T01:11:05.186Z,25.78
2023-03-21T01:11:15.200Z,25.78
2023-03-21T01:11:25.334Z,25.77
2023-03-21T01:11:35.335Z,25.78
2023-03-21T01:11:45.455Z,25.79
2023-03-21T01:11:55.725Z,25.78
2023-03-21T01:12:05.734Z,25.78
2023-03-21T01:12:15.722Z,25.78
2023-03-21T01:12:26.124Z,25.79
2023-03-21T01:12:36.116Z,25.79
2023-03-21T01:12:46.109Z,25.79
2023-03-21T01:12:56.108Z,25.79
2023-03-21T01:13:06.124Z,25.78
2023-03-21T01:13:16.128Z,25.79
2023-03-21T01:13:26.125Z,25.79
2023-03-21T01:13:38.406Z,25.80
2023-03-21T01:13:53.728Z,25.76
2023-03-21T01:14:07.218Z,25.71
2023-03-21T01:14:21.280Z,25.68
2023-03-21T01:14:23.117Z,25.66
2023-03-21T01:14:26.287Z,25.64
2023-03-21T01:14:36.282Z,25.68
2023-03-21T01:14:46.408Z,25.70
2023-03-21T01:14:56.426Z,25.71
2023-03-21T01:15:06.416Z,25.72
2023-03-21T01:15:16.420Z,25.72
2023-03-21T01:15:26.555Z,25.73
2023-03-21T01:15:36.814Z,25.73
2023-03-21T01:15:46.833Z,25.73
2023-03-21T01:15:56.885Z,25.73
2023-03-21T01:16:06.953Z,25.74
2023-03-21T01:16:17.034Z,25.74
2023-03-21T01:16:27.151Z,25.75
2023-03-21T01:16:37.206Z,25.75
2023-03-21T01:16:47.109Z,25.75
2023-03-21T01:16:57.112Z,25.75
2023-03-21T01:17:07.228Z,25.76
2023-03-21T01:17:17.239Z,25.75
2023-03-21T01:17:27.480Z,25.76
2023-03-21T01:17:37.481Z,25.76
2023-03-21T01:17:47.613Z,25.76
2023-03-21T01:17:57.876Z,25.76
2023-03-21T01:18:08.012Z,25.76
2023-03-21T01:18:18.012Z,25.76
2023-03-21T01:18:28.274Z,25.76
2023-03-21T01:18:38.285Z,25.77
2023-03-21T01:18:48.285Z,25.76
2023-03-21T01:18:58.290Z,25.76
2023-03-21T01:19:14.865Z,25.76
2023-03-21T01:19:25.509Z,25.72
2023-03-21T01:19:48.326Z,25.68
2023-03-21T01:19:51.136Z,25.65
2023-03-21T01:19:51.866Z,25.63
2023-03-21T01:19:58.727Z,25.63
2023-03-21T01:20:08.847Z,25.66
2023-03-21T01:20:18.860Z,25.67
2023-03-21T01:20:29.128Z,25.68
2023-03-21T01:20:39.119Z,25.69
2023-03-21T01:20:49.128Z,25.69
2023-03-21T01:20:59.145Z,25.70
2023-03-21T01:21:09.158Z,25.70
2023-03-21T01:21:19.158Z,25.70
2023-03-21T01:21:29.170Z,25.70
2023-03-21T01:21:39.177Z,25.71
2023-03-21T01:21:49.196Z,25.72
2023-03-21T01:21:59.199Z,25.71
2023-03-21T01:22:09.247Z,25.71
2023-03-21T01:22:19.243Z,25.71
2023-03-21T01:22:29.256Z,25.71
2023-03-21T01:22:39.260Z,25.71
2023-03-21T01:22:49.262Z,25.72
2023-03-21T01:22:59.269Z,25.72
2023-03-21T01:23:09.381Z,25.72
2023-03-21T01:23:19.642Z,25.72
2023-03-21T01:23:29.660Z,25.71
2023-03-21T01:23:39.666Z,25.71
2023-03-21T01:23:49.664Z,25.72
2023-03-21T01:23:59.695Z,25.71
2023-03-21T01:24:09.697Z,25.72
2023-03-21T01:24:19.700Z,25.71
2023-03-21T01:24:29.933Z,25.71
2023-03-21T01:24:46.828Z,25.71
2023-03-21T01:24:55.457Z,25.67
2023-03-21T01:25:12.081Z,25.62
2023-03-21T01:25:21.911Z,25.59
2023-03-21T01:25:22.606Z,25.57
2023-03-21T01:25:30.010Z,25.57
2023-03-21T01:25:40.340Z,25.60
2023-03-21T01:25:50.082Z,25.61
2023-03-21T01:26:00.104Z,25.64
2023-03-21T01:26:10.218Z,25.64
2023-03-21T01:26:20.214Z,25.65
2023-03-21T01:26:30.471Z,25.66
2023-03-21T01:26:40.478Z,25.66
2023-03-21T01:26:50.489Z,25.67
2023-03-21T01:27:00.499Z,25.67
2023-03-21T01:27:10.505Z,25.67
2023-03-21T01:27:20.522Z,25.67
2023-03-21T01:27:30.533Z,25.67
2023-03-21T01:27:40.541Z,25.67
2023-03-21T01:27:50.544Z,25.67
2023-03-21T01:28:00.555Z,25.68
2023-03-21T01:28:10.569Z,25.68
2023-03-21T01:28:20.577Z,25.67
2023-03-21T01:28:30.601Z,25.67
2023-03-21T01:28:40.610Z,25.68
2023-03-21T01:28:50.605Z,25.68
2023-03-21T01:29:00.617Z,25.69
2023-03-21T01:29:10.625Z,25.68
2023-03-21T01:29:20.640Z,25.68
2023-03-21T01:29:30.653Z,25.68
2023-03-21T01:29:40.655Z,25.67
2023-03-21T01:29:50.672Z,25.68
2023-03-21T01:30:00.652Z,25.68
2023-03-21T01:30:19.068Z,25.67
2023-03-21T01:30:24.055Z,25.62
2023-03-21T01:30:33.932Z,25.58
2023-03-21T01:30:42.080Z,25.54
2023-03-21T01:30:50.928Z,25.57
2023-03-21T01:31:00.939Z,25.59
2023-03-21T01:31:11.015Z,25.60
2023-03-21T01:31:21.079Z,25.60
2023-03-21T01:31:31.149Z,25.61
2023-03-21T01:31:41.244Z,25.61
2023-03-21T01:31:51.392Z,25.61
2023-03-21T01:32:01.300Z,25.62
2023-03-21T01:32:11.307Z,25.63
2023-03-21T01:32:21.321Z,25.62
2023-03-21T01:32:31.325Z,25.63
2023-03-21T01:32:41.699Z,25.63
2023-03-21T01:32:51.703Z,25.63
2023-03-21T01:33:01.827Z,25.64
2023-03-21T01:33:12.085Z,25.63
2023-03-21T01:33:22.205Z,25.64
2023-03-21T01:33:32.214Z,25.62
2023-03-21T01:33:42.466Z,25.63
2023-03-21T01:33:52.458Z,25.63
2023-03-21T01:34:02.600Z,25.63
2023-03-21T01:34:12.849Z,25.63
2023-03-21T01:34:22.847Z,25.64
2023-03-21T01:34:32.844Z,25.64
2023-03-21T01:34:42.878Z,25.64
2023-03-21T01:34:52.865Z,25.65
2023-03-21T01:35:02.888Z,25.64
2023-03-21T01:35:12.882Z,25.64
2023-03-21T01:35:22.893Z,25.64
2023-03-21T01:35:40.926Z,25.63
2023-03-21T01:35:51.627Z,25.58
2023-03-21T01:36:00.277Z,25.54
2023-03-21T01:36:12.251Z,25.51
2023-03-21T01:36:13.853Z,25.49
2023-03-21T01:36:24.327Z,25.51
2023-03-21T01:36:33.145Z,25.52
2023-03-21T01:36:43.131Z,25.53
2023-03-21T01:36:53.155Z,25.55
2023-03-21T01:37:03.262Z,25.55
2023-03-21T01:37:13.280Z,25.56
2023-03-21T01:37:23.273Z,25.56
2023-03-21T01:37:33.280Z,25.57
2023-03-21T01:37:43.404Z,25.57
2023-03-21T01:37:53.541Z,25.59
2023-03-21T01:38:03.550Z,25.57
2023-03-21T01:38:13.570Z,25.59
2023-03-21T01:38:23.572Z,25.59
2023-03-21T01:38:33.591Z,25.59
2023-03-21T01:38:43.703Z,25.59
2023-03-21T01:38:53.708Z,25.60
2023-03-21T01:39:03.719Z,25.60
2023-03-21T01:39:13.722Z,25.60
2023-03-21T01:39:23.863Z,25.61
2023-03-21T01:39:33.993Z,25.62
2023-03-21T01:39:44.113Z,25.61
2023-03-21T01:39:54.123Z,25.61
2023-03-21T01:40:04.391Z,25.62
2023-03-21T01:40:14.388Z,25.61
2023-03-21T01:40:24.509Z,25.62
2023-03-21T01:40:34.781Z,25.62
2023-03-21T01:40:44.790Z,25.62
2023-03-21T01:40:54.800Z,25.62
2023-03-21T01:41:17.069Z,25.63
2023-03-21T01:41:19.974Z,25.55
2023-03-21T01:41:33.535Z,25.52
2023-03-21T01:41:44.153Z,25.50
2023-03-21T01:41:45.015Z,25.47
2023-03-21T01:41:54.903Z,25.52
2023-03-21T01:42:05.041Z,25.54
2023-03-21T01:42:15.065Z,25.55
2023-03-21T01:42:25.069Z,25.56
2023-03-21T01:42:35.081Z,25.56
2023-03-21T01:42:45.094Z,25.57
2023-03-21T01:42:55.105Z,25.57
2023-03-21T01:43:05.124Z,25.58
2023-03-21T01:43:15.138Z,25.59
2023-03-21T01:43:25.168Z,25.58
2023-03-21T01:43:35.147Z,25.59
2023-03-21T01:43:45.161Z,25.59
2023-03-21T01:43:55.161Z,25.59
2023-03-21T01:44:05.172Z,25.59
2023-03-21T01:44:15.180Z,25.60
2023-03-21T01:44:25.201Z,25.59
2023-03-21T01:44:35.202Z,25.59
2023-03-21T01:44:45.212Z,25.60
2023-03-21T01:44:55.229Z,25.60
2023-03-21T01:45:05.240Z,25.60
2023-03-21T01:45:15.242Z,25.60
2023-03-21T01:45:25.359Z,25.60
2023-03-21T01:45:35.535Z,25.61
2023-03-21T01:45:45.377Z,25.59
2023-03-21T01:45:55.498Z,25.60
2023-03-21T01:46:05.432Z,25.60
2023-03-21T01:46:15.428Z,25.60
2023-03-21T01:46:26.174Z,25.60
2023-03-21T01:46:47.781Z,25.60
2023-03-21T01:46:57.020Z,25.54
2023-03-21T01:47:12.588Z,25.51
2023-03-21T01:47:13.043Z,25.48
2023-03-21T01:47:15.528Z,25.45
2023-03-21T01:47:25.536Z,25.49
2023-03-21T01:47:35.575Z,25.52
2023-03-21T01:47:45.602Z,25.53
2023-03-21T01:47:55.609Z,25.54
2023-03-21T01:48:05.807Z,25.55
2023-03-21T01:48:15.888Z,25.54
2023-03-21T01:48:25.899Z,25.55
2023-03-21T01:48:35.905Z,25.55
2023-03-21T01:48:45.908Z,25.57
2023-03-21T01:48:55.907Z,25.57
2023-03-21T01:49:05.909Z,25.57
2023-03-21T01:49:15.917Z,25.57
2023-03-21T01:49:26.044Z,25.58
2023-03-21T01:49:36.065Z,25.57
2023-03-21T01:49:46.709Z,25.57
2023-03-21T01:49:56.470Z,25.57
2023-03-21T01:50:06.464Z,25.58
2023-03-21T01:50:16.725Z,25.58
2023-03-21T01:50:26.730Z,25.58
2023-03-21T01:50:36.732Z,25.58
2023-03-21T01:50:47.108Z,25.59
2023-03-21T01:50:57.115Z,25.58
2023-03-21T01:51:07.124Z,25.59
2023-03-21T01:51:17.159Z,25.59
2023-03-21T01:51:27.157Z,25.59
2023-03-21T01:51:37.157Z,25.59
2023-03-21T01:51:47.163Z,25.59
2023-03-21T01:52:01.097Z,25.59
2023-03-21T01:52:13.249Z,25.56
2023-03-21T01:52:29.655Z,25.51
2023-03-21T01:52:36.384Z,25.48
2023-03-21T01:52:38.670Z,25.44
2023-03-21T01:52:47.423Z,25.47
2023-03-21T01:52:57.434Z,25.49
2023-03-21T01:53:07.443Z,25.51
2023-03-21T01:53:17.464Z,25.53
2023-03-21T01:53:27.465Z,25.52
2023-03-21T01:53:37.473Z,25.54
2023-03-21T01:53:47.600Z,25.54
2023-03-21T01:53:57.610Z,25.55
2023-03-21T01:54:07.851Z,25.55
2023-03-21T01:54:17.850Z,25.55
2023-03-21T01:54:27.855Z,25.55
2023-03-21T01:54:37.853Z,25.56
2023-03-21T01:54:47.983Z,25.57
2023-03-21T01:54:57.983Z,25.56
2023-03-21T01:55:07.987Z,25.55
2023-03-21T01:55:17.990Z,25.56
2023-03-21T01:55:27.996Z,25.56
2023-03-21T01:55:38.348Z,25.57
2023-03-21T01:55:48.237Z,25.57
2023-03-21T01:55:58.238Z,25.56
2023-03-21T01:56:08.241Z,25.58
2023-03-21T01:56:18.238Z,25.57
2023-03-21T01:56:28.367Z,25.57
2023-03-21T01:56:38.388Z,25.57
2023-03-21T01:56:48.380Z,25.57
2023-03-21T01:56:58.392Z,25.57
2023-03-21T01:57:08.513Z,25.58
2023-03-21T01:57:18.521Z,25.57
2023-03-21T01:57:35.475Z,25.58
2023-03-21T01:57:43.788Z,25.54
2023-03-21T01:58:03.931Z,25.49
2023-03-21T01:58:05.756Z,25.46
2023-03-21T01:58:08.870Z,25.44
2023-03-21T01:58:18.865Z,25.48
2023-03-21T01:58:28.986Z,25.51
2023-03-21T01:58:38.987Z,25.51
2023-03-21T01:58:49.104Z,25.52
2023-03-21T01:58:59.111Z,25.53
2023-03-21T01:59:09.116Z,25.54
2023-03-21T01:59:19.124Z,25.54
2023-03-21T01:59:29.242Z,25.54
2023-03-21T01:59:39.243Z,25.55
2023-03-21T01:59:49.249Z,25.55
2023-03-21T01:59:59.254Z,25.55
2023-03-21T02:00:09.279Z,25.55
2023-03-21T02:00:19.277Z,25.55
2023-03-21T02:00:29.457Z,25.56
2023-03-21T02:00:39.523Z,25.57
2023-03-21T02:00:49.553Z,25.57
2023-03-21T02:00:59.573Z,25.56
2023-03-21T02:01:09.911Z,25.56
2023-03-21T02:01:20.015Z,25.57
2023-03-21T02:01:30.098Z,25.57
2023-03-21T02:01:40.256Z,25.58
2023-03-21T02:01:50.382Z,25.58
2023-03-21T02:02:00.374Z,25.58
2023-03-21T02:02:10.636Z,25.58
2023-03-21T02:02:20.639Z,25.57
2023-03-21T02:02:30.760Z,25.58
2023-03-21T02:02:41.038Z,25.57
2023-03-21T02:02:52.189Z,25.57
2023-03-21T02:03:11.634Z,25.58
2023-03-21T02:03:16.972Z,25.51
2023-03-21T02:03:35.022Z,25.47
2023-03-21T02:03:36.102Z,25.45
2023-03-21T02:03:41.406Z,25.43
2023-03-21T02:03:51.508Z,25.46
2023-03-21T02:04:01.478Z,25.48
2023-03-21T02:04:11.563Z,25.50
2023-03-21T02:04:21.567Z,25.51
2023-03-21T02:04:31.676Z,25.51
2023-03-21T02:04:41.677Z,25.53
2023-03-21T02:04:51.755Z,25.52
2023-03-21T02:05:01.735Z,25.53
2023-03-21T02:05:11.864Z,25.53
2023-03-21T02:05:21.873Z,25.54
2023-03-21T02:05:31.879Z,25.53
2023-03-21T02:05:41.892Z,25.54
2023-03-21T02:05:51.901Z,25.54
2023-03-21T02:06:01.929Z,25.55
2023-03-21T02:06:12.181Z,25.55
2023-03-21T02:06:22.200Z,25.55
2023-03-21T02:06:32.223Z,25.55
2023-03-21T02:06:42.219Z,25.55
2023-03-21T02:06:52.216Z,25.55
2023-03-21T02:07:02.238Z,25.55
2023-03-21T02:07:12.239Z,25.56
2023-03-21T02:07:22.264Z,25.56
2023-03-21T02:07:32.265Z,25.55
2023-03-21T02:07:42.279Z,25.56
2023-03-21T02:07:52.283Z,25.56
2023-03-21T02:08:02.316Z,25.55
2023-03-21T02:08:12.314Z,25.56
2023-03-21T02:08:25.925Z,25.55
2023-03-21T02:08:39.284Z,25.48
2023-03-21T02:08:42.442Z,25.45
2023-03-21T02:08:52.451Z,25.48
2023-03-21T02:09:02.455Z,25.50
2023-03-21T02:09:12.470Z,25.50
2023-03-21T02:09:22.477Z,25.52
2023-03-21T02:09:32.618Z,25.51
2023-03-21T02:09:42.633Z,25.53
2023-03-21T02:09:52.645Z,25.54
2023-03-21T02:10:02.646Z,25.53